Time;durP1;ratioP1;P1;durP2;ratioP2;P2;SDS_P1;SDS_P2;PMS_P1;PMS_P2;Temp;Humidity;BMP_temperature;BMP_pressure;BME280_temperature;BME280_humidity;BME280_pressure;Samples;Min_cycle;Max_cycle;Signal;HPM_P1;HPM_P2
2023/12/19 00:01:04;;;;;;;;;;;;;;;;;;5143035;28;20281;-61
2023/12/19 00:03:35;;;;;;;;;;;;;;;;;;5149416;28;19918;-61
2023/12/19 00:06:06;;;;;;;;;;;;;;;;;;5127595;28;19918;-61
2023/12/19 00:08:37;;;;;;;;;;;;;;;;;;5127094;28;20269;-60
2023/12/19 00:11:08;;;;;;;;;;;;;;;;;;5143528;28;19973;-60
2023/12/19 00:13:39;;;;;;;;;;;;;;;;;;5143457;28;19986;-61
2023/12/19 00:16:11;;;;;;;;;;;;;;;;;;5148312;28;19922;-61
2023/12/19 00:18:42;;;;;;;;;;;;;;;;;;5128087;28;19918;-61
2023/12/19 00:21:12;;;;;;;;;;;;;;;;;;5147360;28;20001;-62
2023/12/19 00:23:43;;;;;;;;;;;;;;;;;;5122822;28;19973;-61
2023/12/19 00:26:14;;;;;;;;;;;;;;;;;;5143305;28;19914;-60
2023/12/19 00:28:45;;;;;;;;;;;;;;;;;;5134558;28;19933;-60
2023/12/19 00:31:16;;;;;;;;;;;;;;;;;;5142800;28;20436;-60
2023/12/19 00:33:47;;;;;;;;;;;;;;;;;;5142952;28;19957;-60
2023/12/19 00:36:18;;;;;;;;;;;;;;;;;;5142695;28;19918;-60
2023/12/19 00:38:49;;;;;;;;;;;;;;;;;;5150442;28;19925;-60
2023/12/19 00:41:20;;;;;;;;;;;;;;;;;;5142847;28;19926;-60
2023/12/19 00:43:51;;;;;;;;;;;;;;;;;;5127008;28;20293;-60
2023/12/19 00:46:22;;;;;;;;;;;;;;;;;;5126991;28;19922;-60
2023/12/19 00:48:53;;;;;;;;;;;;;;;;;;5159347;28;20024;-59
2023/12/19 00:51:24;;;;;;;;;;;;;;;;;;5142486;28;20393;-60
2023/12/19 00:53:55;;;;;;;;;;;;;;;;;;5126833;28;19918;-60
2023/12/19 00:56:26;;;;;;;;;;;;;;;;;;5126304;28;19983;-61
2023/12/19 00:58:57;;;;;;;;;;;;;;;;;;5142151;28;20352;-59
2023/12/19 01:01:28;;;;;;;;;;;;;;;;;;5141845;28;20270;-59
2023/12/19 01:04:00;;;;;;;;;;;;;;;;;;5142230;28;19997;-59
2023/12/19 01:06:31;;;;;;;;;;;;;;;;;;5142751;28;19925;-59
2023/12/19 01:09:04;;;;;;;;;;;;;;;;;;5147031;28;19925;-59
2023/12/19 01:11:35;;;;;;;;;;;;;;;;;;5142026;28;20010;-60
2023/12/19 01:14:06;;;;;;;;;;;;;;;;;;5142251;28;19941;-60
2023/12/19 01:16:37;;;;;;;;;;;;;;;;;;5142279;28;19926;-60
2023/12/19 01:19:09;;;;;;;;;;;;;;;;;;5126245;28;20005;-61
2023/12/19 01:21:40;;;;;;;;;;;;;;;;;;5142306;28;19918;-61
2023/12/19 01:24:11;;;;;;;;;;;;;;;;;;5142271;28;19918;-60
2023/12/19 01:26:44;;;;;;;;;;;;;;;;;;5141823;28;19918;-68
2023/12/19 01:29:15;;;;;;;;;;;;;;;;;;5146472;28;19922;-63
2023/12/19 01:31:46;;;;;;;;;;;;;;;;;;5125716;28;19921;-64
2023/12/19 01:34:16;;;;;;;;;;;;;;;;;;5141946;28;19961;-64
2023/12/19 01:36:48;;;;;;;;;;;;;;;;;;5141842;28;20058;-63
2023/12/19 01:39:19;;;;;;;;;;;;;;;;;;5142041;28;19924;-63
2023/12/19 01:41:50;;;;;;;;;;;;;;;;;;5130991;28;20004;-62
2023/12/19 01:44:21;;;;;;;;;;;;;;;;;;5142121;28;19922;-61
2023/12/19 01:46:52;;;;;;;;;;;;;;;;;;5132001;28;19925;-60
2023/12/19 01:49:23;;;;;;;;;;;;;;;;;;5144977;28;19918;-61
2023/12/19 01:51:54;;;;;;;;;;;;;;;;;;5141149;28;19925;-62
2023/12/19 01:54:25;;;;;;;;;;;;;;;;;;5124844;28;19922;-62
2023/12/19 01:56:56;;;;;;;;;;;;;;;;;;5141780;28;20407;-62
2023/12/19 01:59:27;;;;;;;;;;;;;;;;;;5148781;28;19932;-63
2023/12/19 02:01:58;;;;;;;;;;;;;;;;;;5125941;28;20008;-62
2023/12/19 02:04:29;;;;;;;;;;;;;;;;;;5125658;28;19922;-62
2023/12/19 02:07:00;;;;;;;;;;;;;;;;;;5147083;28;19974;-62
2023/12/19 02:09:32;;;;;;;;;;;;;;;;;;5125733;28;20416;-62
2023/12/19 02:12:03;;;;;;;;;;;;;;;;;;5139928;28;19949;-62
2023/12/19 02:14:34;;;;;;;;;;;;;;;;;;5125554;28;19921;-62
2023/12/19 02:17:05;;;;;;;;;;;;;;;;;;5148542;28;19925;-66
2023/12/19 02:19:36;;;;;;;;;;;;;;;;;;5148057;28;19922;-62
2023/12/19 02:22:07;;;;;;;;;;;;;;;;;;5141730;28;20452;-63
2023/12/19 02:24:38;;;;;;;;;;;;;;;;;;5146965;28;20439;-62
2023/12/19 02:27:09;;;;;;;;;;;;;;;;;;5127203;28;20922;-62
2023/12/19 02:29:40;;;;;;;;;;;;;;;;;;5125409;28;20388;-62
2023/12/19 02:32:11;;;;;;;;;;;;;;;;;;5126824;28;19937;-64
2023/12/19 02:34:42;;;;;;;;;;;;;;;;;;5150684;28;19918;-65
2023/12/19 02:37:13;;;;;;;;;;;;;;;;;;5153929;28;19918;-64
2023/12/19 02:39:44;;;;;;;;;;;;;;;;;;5131626;28;20000;-63
2023/12/19 02:42:15;;;;;;;;;;;;;;;;;;5141401;28;20298;-63
2023/12/19 02:44:46;;;;;;;;;;;;;;;;;;5126342;28;19926;-63
2023/12/19 02:47:17;;;;;;;;;;;;;;;;;;5149418;28;19972;-64
2023/12/19 02:49:48;;;;;;;;;;;;;;;;;;5140691;28;19918;-62
2023/12/19 02:52:19;;;;;;;;;;;;;;;;;;5141315;28;19922;-61
2023/12/19 02:54:50;;;;;;;;;;;;;;;;;;5140944;28;20331;-61
2023/12/19 02:57:21;;;;;;;;;;;;;;;;;;5125826;28;19938;-61
2023/12/19 02:59:52;;;;;;;;;;;;;;;;;;5141628;28;19922;-61
2023/12/19 03:02:23;;;;;;;;;;;;;;;;;;5140410;28;19933;-60
2023/12/19 03:04:54;;;;;;;;;;;;;;;;;;5140899;28;20397;-61
2023/12/19 03:07:25;;;;;;;;;;;;;;;;;;5144141;28;19922;-60
2023/12/19 03:09:56;;;;;;;;;;;;;;;;;;5149619;28;19922;-60
2023/12/19 03:12:27;;;;;;;;;;;;;;;;;;5146764;28;20293;-58
2023/12/19 03:14:58;;;;;;;;;;;;;;;;;;5144468;28;19926;-59
2023/12/19 03:17:29;;;;;;;;;;;;;;;;;;5144139;28;19922;-57
2023/12/19 03:20:00;;;;;;;;;;;;;;;;;;5160831;28;19969;-59
2023/12/19 03:22:31;;;;;;;;;;;;;;;;;;5147161;28;20277;-60
2023/12/19 03:25:02;;;;;;;;;;;;;;;;;;5144754;28;19925;-61
2023/12/19 03:27:33;;;;;;;;;;;;;;;;;;5128067;28;19922;-62
2023/12/19 03:30:04;;;;;;;;;;;;;;;;;;5151686;28;19918;-62
2023/12/19 03:32:35;;;;;;;;;;;;;;;;;;5144266;28;19945;-62
2023/12/19 03:35:06;;;;;;;;;;;;;;;;;;5143445;28;19918;-62
2023/12/19 03:37:37;;;;;;;;;;;;;;;;;;5128058;28;20341;-61
2023/12/19 03:40:09;;;;;;;;;;;;;;;;;;5127736;28;20032;-61
2023/12/19 03:42:40;;;;;;;;;;;;;;;;;;5144059;28;19925;-61
2023/12/19 03:45:11;;;;;;;;;;;;;;;;;;5144039;28;20000;-61
2023/12/19 03:47:42;;;;;;;;;;;;;;;;;;5135552;28;19929;-59
2023/12/19 03:50:13;;;;;;;;;;;;;;;;;;5144324;28;19917;-62
2023/12/19 03:52:44;;;;;;;;;;;;;;;;;;5127554;28;19929;-62
2023/12/19 03:55:15;;;;;;;;;;;;;;;;;;5144160;28;19941;-62
2023/12/19 03:57:46;;;;;;;;;;;;;;;;;;5127553;28;19918;-62
2023/12/19 04:00:18;;;;;;;;;;;;;;;;;;5150990;28;19917;-62
2023/12/19 04:02:49;;;;;;;;;;;;;;;;;;5143103;28;19957;-62
2023/12/19 04:05:20;;;;;;;;;;;;;;;;;;5143785;28;19925;-62
2023/12/19 04:07:51;;;;;;;;;;;;;;;;;;5143782;28;20424;-62
2023/12/19 04:10:22;;;;;;;;;;;;;;;;;;5143361;28;19922;-60
2023/12/19 04:12:53;;;;;;;;;;;;;;;;;;5127838;28;20344;-61
2023/12/19 04:15:24;;;;;;;;;;;;;;;;;;5127545;28;19918;-61
2023/12/19 04:17:55;;;;;;;;;;;;;;;;;;5126875;28;19926;-61
2023/12/19 04:20:26;;;;;;;;;;;;;;;;;;5127807;28;19922;-61
2023/12/19 04:22:57;;;;;;;;;;;;;;;;;;5146669;28;19925;-60
2023/12/19 04:25:28;;;;;;;;;;;;;;;;;;5147595;28;19925;-61
2023/12/19 04:27:59;;;;;;;;;;;;;;;;;;5127880;28;19926;-60
2023/12/19 04:30:30;;;;;;;;;;;;;;;;;;5143226;28;19956;-61
2023/12/19 04:33:01;;;;;;;;;;;;;;;;;;5126780;28;20293;-61
2023/12/19 04:35:32;;;;;;;;;;;;;;;;;;5142990;28;19933;-62
2023/12/19 04:38:03;;;;;;;;;;;;;;;;;;5142940;28;20349;-61
2023/12/19 04:40:34;;;;;;;;;;;;;;;;;;5126696;28;19918;-62
2023/12/19 04:43:05;;;;;;;;;;;;;;;;;;5142739;28;20460;-63
2023/12/19 04:45:36;;;;;;;;;;;;;;;;;;5144294;28;19945;-61
2023/12/19 04:48:07;;;;;;;;;;;;;;;;;;5127055;28;19922;-64
2023/12/19 04:50:38;;;;;;;;;;;;;;;;;;5149661;28;20013;-61
2023/12/19 04:53:09;;;;;;;;;;;;;;;;;;5125687;28;19926;-59
2023/12/19 04:55:40;;;;;;;;;;;;;;;;;;5142596;28;20064;-60
2023/12/19 04:58:11;;;;;;;;;;;;;;;;;;5142346;28;20408;-65
2023/12/19 05:00:42;;;;;;;;;;;;;;;;;;5142721;28;19984;-63
2023/12/19 05:03:14;;;;;;;;;;;;;;;;;;5142434;28;19918;-62
2023/12/19 05:05:45;;;;;;;;;;;;;;;;;;5126491;28;19918;-62
2023/12/19 05:08:16;;;;;;;;;;;;;;;;;;5142177;28;19925;-62
2023/12/19 05:10:47;;;;;;;;;;;;;;;;;;5126062;28;19922;-61
2023/12/19 05:13:18;;;;;;;;;;;;;;;;;;5149590;28;20270;-61
2023/12/19 05:15:49;;;;;;;;;;;;;;;;;;5140877;28;19992;-62
2023/12/19 05:18:20;;;;;;;;;;;;;;;;;;5150639;28;19918;-60
2023/12/19 05:20:51;;;;;;;;;;;;;;;;;;5142624;28;19925;-62
2023/12/19 05:23:22;;;;;;;;;;;;;;;;;;5143272;28;19953;-62
2023/12/19 05:25:53;;;;;;;;;;;;;;;;;;5149362;28;20000;-62
2023/12/19 05:28:24;;;;;;;;;;;;;;;;;;5158433;28;19962;-61
2023/12/19 05:30:56;;;;;;;;;;;;;;;;;;5142776;28;19922;-58
2023/12/19 05:33:27;;;;;;;;;;;;;;;;;;5142630;28;19988;-60
2023/12/19 05:35:58;;;;;;;;;;;;;;;;;;5137218;28;19980;-60
2023/12/19 05:38:29;;;;;;;;;;;;;;;;;;5142465;28;19925;-60
2023/12/19 05:41:00;;;;;;;;;;;;;;;;;;5127019;28;20395;-60
2023/12/19 05:43:31;;;;;;;;;;;;;;;;;;5141279;28;19922;-60
2023/12/19 05:46:02;;;;;;;;;;;;;;;;;;5128524;28;19922;-63
2023/12/19 05:48:33;;;;;;;;;;;;;;;;;;5141657;28;19928;-62
2023/12/19 05:51:04;;;;;;;;;;;;;;;;;;5127080;28;20008;-62
2023/12/19 05:53:35;;;;;;;;;;;;;;;;;;5142303;28;19922;-62
2023/12/19 05:56:06;;;;;;;;;;;;;;;;;;5125535;28;19988;-64
2023/12/19 05:58:37;;;;;;;;;;;;;;;;;;5142414;28;19922;-64
2023/12/19 06:01:08;;;;;;;;;;;;;;;;;;5126326;28;19964;-63
2023/12/19 06:03:40;;;;;;;;;;;;;;;;;;5141734;28;20334;-64
2023/12/19 06:06:11;;;;;;;;;;;;;;;;;;5141919;28;19918;-61
2023/12/19 06:08:45;;;;;;;;;;;;;;;;;;5128694;28;19925;-61
2023/12/19 06:11:16;;;;;;;;;;;;;;;;;;5141202;28;19918;-62
2023/12/19 06:13:47;;;;;;;;;;;;;;;;;;5145663;28;19918;-61
2023/12/19 06:16:18;;;;;;;;;;;;;;;;;;5141400;28;19973;-59
2023/12/19 06:18:49;;;;;;;;;;;;;;;;;;5140889;28;19977;-62
2023/12/19 06:21:20;;;;;;;;;;;;;;;;;;5141496;28;19930;-61
2023/12/19 06:23:51;;;;;;;;;;;;;;;;;;5141865;28;19922;-61
2023/12/19 06:26:22;;;;;;;;;;;;;;;;;;5148173;28;20357;-60
2023/12/19 06:28:53;;;;;;;;;;;;;;;;;;5141172;28;19925;-60
2023/12/19 06:31:24;;;;;;;;;;;;;;;;;;5141144;28;19918;-61
2023/12/19 06:33:55;;;;;;;;;;;;;;;;;;5140964;28;19940;-60
2023/12/19 06:36:26;;;;;;;;;;;;;;;;;;5141532;28;19922;-61
2023/12/19 06:38:57;;;;;;;;;;;;;;;;;;5140947;28;20246;-60
2023/12/19 06:41:28;;;;;;;;;;;;;;;;;;5141121;28;20008;-61
2023/12/19 06:44:14;;;;;;;;;;;;;;;;;;5150447;28;19932;-60
2023/12/19 06:46:49;;;;;;;;;;;;;;;;;;5129831;28;19920;-61
2023/12/19 06:49:20;;;;;;;;;;;;;;;;;;5123303;28;20013;-62
2023/12/19 06:51:51;;;;;;;;;;;;;;;;;;5132865;28;20012;-61
2023/12/19 06:54:22;;;;;;;;;;;;;;;;;;5139777;28;19922;-61
2023/12/19 06:56:53;;;;;;;;;;;;;;;;;;5123287;28;19917;-62
2023/12/19 06:59:24;;;;;;;;;;;;;;;;;;5126279;28;19921;-62
2023/12/19 07:01:55;;;;;;;;;;;;;;;;;;5139690;28;19997;-63
2023/12/19 07:04:27;;;;;;;;;;;;;;;;;;5124139;28;20045;-63
2023/12/19 07:06:58;;;;;;;;;;;;;;;;;;5139794;28;19937;-63
2023/12/19 07:09:29;;;;;;;;;;;;;;;;;;5148807;28;19918;-62
2023/12/19 07:12:00;;;;;;;;;;;;;;;;;;5150852;28;19926;-62
2023/12/19 07:14:31;;;;;;;;;;;;;;;;;;5122345;28;20047;-64
2023/12/19 07:17:02;;;;;;;;;;;;;;;;;;5138846;28;19986;-65
2023/12/19 07:19:34;;;;;;;;;;;;;;;;;;5140974;28;20345;-63
2023/12/19 07:22:05;;;;;;;;;;;;;;;;;;5124676;28;19925;-65
2023/12/19 07:24:36;;;;;;;;;;;;;;;;;;5140687;28;19914;-64
2023/12/19 07:27:07;;;;;;;;;;;;;;;;;;5140065;28;19929;-64
2023/12/19 07:29:38;;;;;;;;;;;;;;;;;;5140543;28;19918;-62
2023/12/19 07:32:09;;;;;;;;;;;;;;;;;;5125018;28;19922;-62
2023/12/19 07:34:40;;;;;;;;;;;;;;;;;;5121639;28;19928;-61
2023/12/19 07:37:11;;;;;;;;;;;;;;;;;;5141086;28;19918;-62
2023/12/19 07:39:42;;;;;;;;;;;;;;;;;;5125087;28;19918;-61
2023/12/19 07:42:13;;;;;;;;;;;;;;;;;;5125210;28;19926;-62
2023/12/19 07:44:44;;;;;;;;;;;;;;;;;;5124882;28;19968;-61
2023/12/19 07:47:15;;;;;;;;;;;;;;;;;;5141354;28;19961;-61
2023/12/19 07:49:46;;;;;;;;;;;;;;;;;;5128127;28;19924;-60
2023/12/19 07:52:17;;;;;;;;;;;;;;;;;;5125923;28;20341;-61
2023/12/19 07:54:48;;;;;;;;;;;;;;;;;;5144109;28;19973;-61
2023/12/19 07:57:19;;;;;;;;;;;;;;;;;;5127823;28;19926;-61
2023/12/19 07:59:50;;;;;;;;;;;;;;;;;;5144202;28;19945;-61
2023/12/19 08:02:23;;;;;;;;;;;;;;;;;;5127595;28;19969;-61
2023/12/19 08:04:54;;;;;;;;;;;;;;;;;;5128143;28;20342;-58
2023/12/19 08:07:25;;;;;;;;;;;;;;;;;;5143688;28;19936;-58
2023/12/19 08:09:58;;;;;;;;;;;;;;;;;;5143135;28;20024;-58
2023/12/19 08:12:29;;;;;;;;;;;;;;;;;;5142760;28;20024;-58
2023/12/19 08:15:00;;;;;;;;;;;;;;;;;;5143313;28;19918;-65
2023/12/19 08:17:31;;;;;;;;;;;;;;;;;;5126902;28;19924;-66
2023/12/19 08:20:03;;;;;;;;;;;;;;;;;;5127196;28;19922;-62
2023/12/19 08:22:34;;;;;;;;;;;;;;;;;;5143703;28;19922;-64
2023/12/19 08:25:05;;;;;;;;;;;;;;;;;;5141054;28;19925;-64
2023/12/19 08:27:36;;;;;;;;;;;;;;;;;;5128684;28;19917;-62
2023/12/19 08:30:07;;;;;;;;;;;;;;;;;;5150714;28;19929;-63
2023/12/19 08:32:38;;;;;;;;;;;;;;;;;;5148601;28;19925;-63
2023/12/19 08:35:09;;;;;;;;;;;;;;;;;;5125482;28;19929;-64
2023/12/19 08:37:40;;;;;;;;;;;;;;;;;;5135655;28;19928;-63
2023/12/19 08:40:11;;;;;;;;;;;;;;;;;;5143065;28;21014;-63
2023/12/19 08:42:42;;;;;;;;;;;;;;;;;;5143184;28;19929;-64
2023/12/19 08:45:13;;;;;;;;;;;;;;;;;;5127176;28;19921;-62
2023/12/19 08:47:44;;;;;;;;;;;;;;;;;;5143460;28;19922;-62
2023/12/19 08:50:15;;;;;;;;;;;;;;;;;;5126538;28;19918;-62
2023/12/19 08:52:47;;;;;;;;;;;;;;;;;;5128093;28;19922;-62
2023/12/19 08:55:18;;;;;;;;;;;;;;;;;;5143975;28;20028;-61
2023/12/19 08:57:49;;;;;;;;;;;;;;;;;;5128988;28;20009;-62
2023/12/19 09:00:21;;;;;;;;;;;;;;;;;;5143453;28;19976;-61
2023/12/19 09:02:52;;;;;;;;;;;;;;;;;;5145948;28;19929;-63
2023/12/19 09:05:23;;;;;;;;;;;;;;;;;;5146610;28;19918;-63
2023/12/19 09:07:54;;;;;;;;;;;;;;;;;;5145104;28;19922;-60
2023/12/19 09:10:25;;;;;;;;;;;;;;;;;;5144927;28;20000;-60
2023/12/19 09:12:57;;;;;;;;;;;;;;;;;;5143027;28;20005;-61
2023/12/19 09:15:28;;;;;;;;;;;;;;;;;;5142214;28;19918;-61
2023/12/19 09:17:59;;;;;;;;;;;;;;;;;;5131400;28;19921;-61
2023/12/19 09:20:30;;;;;;;;;;;;;;;;;;5145112;28;20335;-62
2023/12/19 09:23:01;;;;;;;;;;;;;;;;;;5126285;28;19989;-63
2023/12/19 09:25:32;;;;;;;;;;;;;;;;;;5148605;28;19996;-63
2023/12/19 09:28:03;;;;;;;;;;;;;;;;;;5147213;28;19925;-62
2023/12/19 09:30:34;;;;;;;;;;;;;;;;;;5145086;28;19924;-63
2023/12/19 09:33:05;;;;;;;;;;;;;;;;;;5142263;28;20045;-63
2023/12/19 09:35:36;;;;;;;;;;;;;;;;;;5141913;28;20008;-61
2023/12/19 09:38:07;;;;;;;;;;;;;;;;;;5142532;28;20373;-60
2023/12/19 09:40:38;;;;;;;;;;;;;;;;;;5147343;28;19918;-61
2023/12/19 09:43:10;;;;;;;;;;;;;;;;;;5141988;28;20105;-59
2023/12/19 09:45:40;;;;;;;;;;;;;;;;;;5124794;28;19922;-59
2023/12/19 09:48:11;;;;;;;;;;;;;;;;;;5141980;28;19924;-61
2023/12/19 09:50:45;;;;;;;;;;;;;;;;;;5141646;28;20473;-59
2023/12/19 09:53:18;;;;;;;;;;;;;;;;;;5141925;28;19922;-61
2023/12/19 09:55:49;;;;;;;;;;;;;;;;;;5144746;28;19918;-60
2023/12/19 09:58:20;;;;;;;;;;;;;;;;;;5141637;28;20370;-61
2023/12/19 10:00:51;;;;;;;;;;;;;;;;;;5141393;28;19924;-62
2023/12/19 10:03:22;;;;;;;;;;;;;;;;;;5141776;28;19973;-62
2023/12/19 10:05:53;;;;;;;;;;;;;;;;;;5141360;28;20313;-61
2023/12/19 10:08:24;;;;;;;;;;;;;;;;;;5143820;28;20286;-61
2023/12/19 10:10:55;;;;;;;;;;;;;;;;;;5141529;28;19926;-62
2023/12/19 10:13:32;;;;;;;;;;;;;;;;;;5141386;28;19988;-62
2023/12/19 10:16:04;;;;;;;;;;;;;;;;;;5140822;28;20333;-62
2023/12/19 10:18:36;;;;;;;;;;;;;;;;;;5143548;28;19968;-65
2023/12/19 10:21:10;;;;;;;;;;;;;;;;;;5141788;28;19936;-64
2023/12/19 10:23:41;;;;;;;;;;;;;;;;;;5142588;28;19925;-63
2023/12/19 10:26:12;;;;;;;;;;;;;;;;;;5123749;28;19918;-62
2023/12/19 10:28:43;;;;;;;;;;;;;;;;;;5139991;28;20353;-64
2023/12/19 10:31:17;;;;;;;;;;;;;;;;;;5131027;28;19918;-62
2023/12/19 10:33:49;;;;;;;;;;;;;;;;;;5124883;28;20373;-63
2023/12/19 10:36:20;;;;;;;;;;;;;;;;;;5124937;28;19929;-63
2023/12/19 10:38:51;;;;;;;;;;;;;;;;;;5139595;28;20389;-63
2023/12/19 10:41:22;;;;;;;;;;;;;;;;;;5119915;28;19925;-63
2023/12/19 10:43:55;;;;;;;;;;;;;;;;;;5143443;28;20009;-62
2023/12/19 10:46:26;;;;;;;;;;;;;;;;;;5138546;28;19930;-62
2023/12/19 10:48:56;;;;;;;;;;;;;;;;;;5125239;28;20525;-62
2023/12/19 10:51:27;;;;;;;;;;;;;;;;;;5142968;28;19998;-62
2023/12/19 10:53:58;;;;;;;;;;;;;;;;;;5144200;28;19973;-61
2023/12/19 10:56:29;;;;;;;;;;;;;;;;;;5139005;28;20335;-61
2023/12/19 10:59:00;;;;;;;;;;;;;;;;;;5131957;28;19929;-61
2023/12/19 11:01:32;;;;;;;;;;;;;;;;;;5144709;28;19921;-61
2023/12/19 11:04:03;;;;;;;;;;;;;;;;;;5140304;28;19921;-62
2023/12/19 11:06:35;;;;;;;;;;;;;;;;;;5141889;28;20333;-62
2023/12/19 11:09:07;;;;;;;;;;;;;;;;;;5148866;28;19918;-63
2023/12/19 11:11:38;;;;;;;;;;;;;;;;;;5144992;28;20304;-63
2023/12/19 11:14:09;;;;;;;;;;;;;;;;;;5143291;28;20270;-62
2023/12/19 11:16:40;;;;;;;;;;;;;;;;;;5125039;28;20388;-63
2023/12/19 11:19:11;;;;;;;;;;;;;;;;;;5118798;28;19921;-64
2023/12/19 11:21:42;;;;;;;;;;;;;;;;;;5156928;28;19925;-64
2023/12/19 11:24:13;;;;;;;;;;;;;;;;;;5138138;28;19922;-63
2023/12/19 11:26:44;;;;;;;;;;;;;;;;;;5125523;28;20321;-63
2023/12/19 11:29:15;;;;;;;;;;;;;;;;;;5127567;28;19918;-64
2023/12/19 11:31:46;;;;;;;;;;;;;;;;;;5143665;28;20021;-63
2023/12/19 11:34:17;;;;;;;;;;;;;;;;;;5141268;28;19922;-63
2023/12/19 11:36:48;;;;;;;;;;;;;;;;;;5127874;28;20795;-62
2023/12/19 11:39:19;;;;;;;;;;;;;;;;;;5128293;28;19925;-62
2023/12/19 11:41:50;;;;;;;;;;;;;;;;;;5127873;28;19918;-63
2023/12/19 11:44:21;;;;;;;;;;;;;;;;;;5138387;28;19928;-63
2023/12/19 11:46:52;;;;;;;;;;;;;;;;;;5146487;28;20036;-63
2023/12/19 11:49:23;;;;;;;;;;;;;;;;;;5145728;28;19922;-62
2023/12/19 11:51:55;;;;;;;;;;;;;;;;;;5143562;28;20004;-62
2023/12/19 11:54:26;;;;;;;;;;;;;;;;;;5144329;28;20258;-62
2023/12/19 11:56:58;;;;;;;;;;;;;;;;;;5129337;28;20277;-61
2023/12/19 11:59:29;;;;;;;;;;;;;;;;;;5128005;28;20358;-62
2023/12/19 12:02:00;;;;;;;;;;;;;;;;;;5127177;28;19957;-62
2023/12/19 12:04:31;;;;;;;;;;;;;;;;;;5143617;28;20278;-63
2023/12/19 12:07:02;;;;;;;;;;;;;;;;;;5143471;28;19918;-62
2023/12/19 12:09:33;;;;;;;;;;;;;;;;;;5128338;28;19965;-62
2023/12/19 12:12:04;;;;;;;;;;;;;;;;;;5145920;28;20349;-61
2023/12/19 12:14:35;;;;;;;;;;;;;;;;;;5143220;28;19922;-61
2023/12/19 12:17:06;;;;;;;;;;;;;;;;;;5127360;28;19957;-61
2023/12/19 12:19:38;;;;;;;;;;;;;;;;;;5135511;28;20012;-61
2023/12/19 12:22:09;;;;;;;;;;;;;;;;;;5126872;28;19925;-62
2023/12/19 12:24:40;;;;;;;;;;;;;;;;;;5143110;28;20008;-61
2023/12/19 12:27:11;;;;;;;;;;;;;;;;;;5146788;28;20304;-61
2023/12/19 12:29:42;;;;;;;;;;;;;;;;;;5143153;28;19922;-61
2023/12/19 12:32:13;;;;;;;;;;;;;;;;;;5142638;28;20357;-62
2023/12/19 12:34:47;;;;;;;;;;;;;;;;;;5143017;28;19985;-60
2023/12/19 12:37:18;;;;;;;;;;;;;;;;;;5126410;28;19965;-61
2023/12/19 12:39:49;;;;;;;;;;;;;;;;;;5150280;28;19980;-61
2023/12/19 12:42:20;;;;;;;;;;;;;;;;;;5142777;28;19918;-60
2023/12/19 12:44:51;;;;;;;;;;;;;;;;;;5126455;28;19918;-61
2023/12/19 12:47:22;;;;;;;;;;;;;;;;;;5142689;28;19918;-61
2023/12/19 12:49:53;;;;;;;;;;;;;;;;;;5142359;28;20330;-62
2023/12/19 12:52:24;;;;;;;;;;;;;;;;;;5142593;28;20012;-61
2023/12/19 12:54:55;;;;;;;;;;;;;;;;;;5142321;28;20380;-62
2023/12/19 12:57:26;;;;;;;;;;;;;;;;;;5127155;28;19918;-61
2023/12/19 12:59:57;;;;;;;;;;;;;;;;;;5125739;28;19936;-63
2023/12/19 13:02:29;;;;;;;;;;;;;;;;;;5142732;28;20329;-61
2023/12/19 13:05:00;;;;;;;;;;;;;;;;;;5126472;28;19980;-60
2023/12/19 13:07:31;;;;;;;;;;;;;;;;;;5142462;28;20013;-60
2023/12/19 13:10:02;;;;;;;;;;;;;;;;;;5143647;28;20000;-60
2023/12/19 13:12:33;;;;;;;;;;;;;;;;;;5126939;28;19930;-60
2023/12/19 13:15:05;;;;;;;;;;;;;;;;;;5126319;28;20350;-61
2023/12/19 13:17:36;;;;;;;;;;;;;;;;;;5126970;28;19925;-60
2023/12/19 13:20:10;;;;;;;;;;;;;;;;;;5142932;28;20008;-60
2023/12/19 13:22:41;;;;;;;;;;;;;;;;;;5143707;28;19922;-61
2023/12/19 13:25:12;;;;;;;;;;;;;;;;;;5141767;28;20346;-62
2023/12/19 13:27:43;;;;;;;;;;;;;;;;;;5142058;28;19918;-60
2023/12/19 13:30:14;;;;;;;;;;;;;;;;;;5141763;28;19928;-60
2023/12/19 13:32:45;;;;;;;;;;;;;;;;;;5125650;28;19922;-61
2023/12/19 13:35:16;;;;;;;;;;;;;;;;;;5125361;28;20263;-61
2023/12/19 13:37:49;;;;;;;;;;;;;;;;;;5142712;28;19961;-60
2023/12/19 13:40:19;;;;;;;;;;;;;;;;;;5125362;28;19929;-62
2023/12/19 13:42:50;;;;;;;;;;;;;;;;;;5141472;28;20301;-62
2023/12/19 13:45:22;;;;;;;;;;;;;;;;;;5125120;28;19926;-61
2023/12/19 13:47:53;;;;;;;;;;;;;;;;;;5142903;28;19925;-61
2023/12/19 13:50:24;;;;;;;;;;;;;;;;;;5124679;28;19918;-60
2023/12/19 13:52:55;;;;;;;;;;;;;;;;;;5141645;28;19922;-60
2023/12/19 13:55:26;;;;;;;;;;;;;;;;;;5141006;28;19917;-60
2023/12/19 13:57:57;;;;;;;;;;;;;;;;;;5127577;28;19925;-60
2023/12/19 14:00:28;;;;;;;;;;;;;;;;;;5124771;28;20373;-62
2023/12/19 14:02:59;;;;;;;;;;;;;;;;;;5141327;28;19918;-62
2023/12/19 14:05:30;;;;;;;;;;;;;;;;;;5146065;28;20308;-61
2023/12/19 14:08:01;;;;;;;;;;;;;;;;;;5141223;28;19925;-64
2023/12/19 14:10:32;;;;;;;;;;;;;;;;;;5146804;28;19921;-63
2023/12/19 14:13:03;;;;;;;;;;;;;;;;;;5141085;28;19930;-65
2023/12/19 14:15:34;;;;;;;;;;;;;;;;;;5140668;28;19922;-62
2023/12/19 14:18:05;;;;;;;;;;;;;;;;;;5125090;28;20052;-61
2023/12/19 14:20:36;;;;;;;;;;;;;;;;;;5129123;28;20301;-63
2023/12/19 14:23:07;;;;;;;;;;;;;;;;;;5142916;28;19918;-64
2023/12/19 14:25:38;;;;;;;;;;;;;;;;;;5142453;28;20270;-62
2023/12/19 14:28:09;;;;;;;;;;;;;;;;;;5124074;28;19922;-63
2023/12/19 14:30:41;;;;;;;;;;;;;;;;;;5123967;28;19925;-63
2023/12/19 14:33:12;;;;;;;;;;;;;;;;;;5124029;28;19937;-58
2023/12/19 14:35:43;;;;;;;;;;;;;;;;;;5140966;28;19918;-58
2023/12/19 14:38:15;;;;;;;;;;;;;;;;;;5125318;28;20373;-59
2023/12/19 14:40:48;;;;;;;;;;;;;;;;;;5124791;28;20017;-59
2023/12/19 14:43:19;;;;;;;;;;;;;;;;;;5141007;28;20210;-59
2023/12/19 14:45:50;;;;;;;;;;;;;;;;;;5140507;28;19980;-59
2023/12/19 14:48:22;;;;;;;;;;;;;;;;;;5140489;28;20005;-58
2023/12/19 14:50:53;;;;;;;;;;;;;;;;;;5124550;28;19918;-58
2023/12/19 14:53:24;;;;;;;;;;;;;;;;;;5140065;28;19926;-58
2023/12/19 14:55:55;;;;;;;;;;;;;;;;;;5140788;28;19922;-59
2023/12/19 14:58:27;;;;;;;;;;;;;;;;;;5142376;28;19982;-58
2023/12/19 15:00:58;;;;;;;;;;;;;;;;;;5141738;28;19984;-59
2023/12/19 15:03:29;;;;;;;;;;;;;;;;;;5144610;28;19921;-59
2023/12/19 15:06:00;;;;;;;;;;;;;;;;;;5145989;28;19941;-58
2023/12/19 15:08:31;;;;;;;;;;;;;;;;;;5148180;28;20241;-58
2023/12/19 15:11:05;;;;;;;;;;;;;;;;;;5144998;28;19918;-59
2023/12/19 15:13:36;;;;;;;;;;;;;;;;;;5145443;28;20003;-58
2023/12/19 15:16:07;;;;;;;;;;;;;;;;;;5144545;28;19922;-58
2023/12/19 15:18:38;;;;;;;;;;;;;;;;;;5151115;28;19917;-58
2023/12/19 15:21:09;;;;;;;;;;;;;;;;;;5144998;28;20262;-58
2023/12/19 15:23:41;;;;;;;;;;;;;;;;;;5144480;28;19921;-61
2023/12/19 15:26:12;;;;;;;;;;;;;;;;;;5128297;28;19945;-59
2023/12/19 15:28:43;;;;;;;;;;;;;;;;;;5129090;28;20274;-59
2023/12/19 15:31:14;;;;;;;;;;;;;;;;;;5127704;28;19918;-61
2023/12/19 15:33:45;;;;;;;;;;;;;;;;;;5143747;28;19929;-59
2023/12/19 15:36:16;;;;;;;;;;;;;;;;;;5125159;28;19918;-60
2023/12/19 15:38:47;;;;;;;;;;;;;;;;;;5150431;28;19922;-60
2023/12/19 15:41:20;;;;;;;;;;;;;;;;;;5144045;28;19929;-60
2023/12/19 15:43:52;;;;;;;;;;;;;;;;;;5151739;28;19940;-61
2023/12/19 15:46:23;;;;;;;;;;;;;;;;;;5144090;28;20024;-61
2023/12/19 15:48:57;;;;;;;;;;;;;;;;;;5143926;28;19964;-61
2023/12/19 15:51:28;;;;;;;;;;;;;;;;;;5130646;28;19992;-60
2023/12/19 15:54:01;;;;;;;;;;;;;;;;;;5129416;28;19993;-58
2023/12/19 15:56:32;;;;;;;;;;;;;;;;;;5143811;28;19918;-61
2023/12/19 15:59:06;;;;;;;;;;;;;;;;;;5143736;28;19924;-61
2023/12/19 16:01:37;;;;;;;;;;;;;;;;;;5146614;28;20665;-63
2023/12/19 16:04:08;;;;;;;;;;;;;;;;;;5143787;28;19925;-60
2023/12/19 16:06:39;;;;;;;;;;;;;;;;;;5143764;28;20365;-61
2023/12/19 16:09:10;;;;;;;;;;;;;;;;;;5145623;28;19922;-60
2023/12/19 16:11:41;;;;;;;;;;;;;;;;;;5143383;28;19929;-60
2023/12/19 16:14:12;;;;;;;;;;;;;;;;;;5127577;28;20370;-63
2023/12/19 16:16:43;;;;;;;;;;;;;;;;;;5143051;28;19946;-64
2023/12/19 16:19:14;;;;;;;;;;;;;;;;;;5143592;28;19925;-63
2023/12/19 16:21:45;;;;;;;;;;;;;;;;;;5143672;28;19917;-64
2023/12/19 16:24:17;;;;;;;;;;;;;;;;;;5127274;28;19922;-63
2023/12/19 16:26:48;;;;;;;;;;;;;;;;;;5142458;28;20354;-62
2023/12/19 16:29:19;;;;;;;;;;;;;;;;;;5141526;28;19985;-62
2023/12/19 16:31:50;;;;;;;;;;;;;;;;;;5143043;28;19989;-61
2023/12/19 16:34:21;;;;;;;;;;;;;;;;;;5127893;28;19937;-61
2023/12/19 16:36:52;;;;;;;;;;;;;;;;;;5137006;28;19928;-61
2023/12/19 16:39:23;;;;;;;;;;;;;;;;;;5144337;28;19993;-62
2023/12/19 16:41:54;;;;;;;;;;;;;;;;;;5126825;28;19918;-64
2023/12/19 16:44:25;;;;;;;;;;;;;;;;;;5143653;28;19918;-62
2023/12/19 16:46:56;;;;;;;;;;;;;;;;;;5142507;28;19922;-59
2023/12/19 16:49:27;;;;;;;;;;;;;;;;;;5142195;28;19928;-60
2023/12/19 16:51:58;;;;;;;;;;;;;;;;;;5143154;28;20369;-62
2023/12/19 16:54:29;;;;;;;;;;;;;;;;;;5125706;28;19922;-57
2023/12/19 16:57:01;;;;;;;;;;;;;;;;;;5141933;28;20009;-57
2023/12/19 16:59:32;;;;;;;;;;;;;;;;;;5141101;28;19918;-58
2023/12/19 17:02:03;;;;;;;;;;;;;;;;;;5137819;28;19929;-58
2023/12/19 17:04:41;;;;;;;;;;;;;;;;;;5124819;28;20424;-58
2023/12/19 17:07:12;;;;;;;;;;;;;;;;;;5141652;28;19922;-59
2023/12/19 17:09:43;;;;;;;;;;;;;;;;;;5141614;28;20786;-58
2023/12/19 17:12:14;;;;;;;;;;;;;;;;;;5141392;28;19926;-58